RKJJ/KWJ METAR and TAF weather

Enter ICAO airport designator
Station Type Date Time Source
RKJJ METAR 2021/05/18 23:30 UTC NOAA

RKJJ 182330Z 01003KT 4800 BR FEW007 17/16 A2992


Station Type Date Time Source
RKJJ Decoded METAR 2021/05/18 23:30 UTC NOAA

Kwangju Ab, Korea, South (RKJJ) 35-07N 126-49E 13M
May 18, 2021 - 07:30 PM EDT / 2021.05.18 2330 UTC
Wind: from the N (010 degrees) at 3 MPH (3 KT):0
Visibility: 2 mile(s):0
Sky conditions: mostly clear
Weather: mist
Temperature: 62 F (17 C)
Dew Point: 60 F (16 C)
Relative Humidity: 93%
Pressure (altimeter): 29.92 in. Hg (1013 hPa)
ob: RKJJ 182330Z 01003KT 4800 BR FEW007 17/16 A2992
cycle: 23

Station Type Date Time Source
RKJJ TAF 2020/09/17 12:09 UTC NOAA

TAF TAF RKJJ 171100Z 1712/1818 15006KT 8000 -RA SCT030 OVC100 TN18/1721Z TX23/1806Z
BECMG 1717/1718 21006KT 4800 -RA BR BKN015 OVC030
BECMG 1723/1724 24006KT 9999 NSW BKN030 BKN100
BECMG 1803/1804 SCT030

Example: see airport list